sensor_id;sensor_type;location;lat;lon;timestamp;pressure;altitude;pressure_sealevel;temperature;humidity
41202;BME280;26936;50.524;8.684;2022-11-15T00:00:13;99011.09;;;9.67;100.00
41202;BME280;26936;50.524;8.684;2022-11-15T00:02:38;99002.44;;;9.61;100.00
41202;BME280;26936;50.524;8.684;2022-11-15T00:05:04;99007.53;;;9.76;100.00
41202;BME280;26936;50.524;8.684;2022-11-15T00:07:29;99007.41;;;9.79;100.00
41202;BME280;26936;50.524;8.684;2022-11-15T00:09:54;99004.81;;;9.85;100.00
41202;BME280;26936;50.524;8.684;2022-11-15T00:12:19;98997.69;;;9.93;100.00
41202;BME280;26936;50.524;8.684;2022-11-15T00:14:45;99003.66;;;9.95;100.00
41202;BME280;26936;50.524;8.684;2022-11-15T00:17:10;98992.41;;;9.95;100.00
41202;BME280;26936;50.524;8.684;2022-11-15T00:19:35;98989.88;;;10.09;100.00
41202;BME280;26936;50.524;8.684;2022-11-15T00:22:00;98999.75;;;10.14;100.00
41202;BME280;26936;50.524;8.684;2022-11-15T00:24:26;98990.31;;;10.08;100.00
41202;BME280;26936;50.524;8.684;2022-11-15T00:26:51;98993.78;;;10.12;100.00
41202;BME280;26936;50.524;8.684;2022-11-15T00:29:16;98993.00;;;10.11;100.00
41202;BME280;26936;50.524;8.684;2022-11-15T00:31:41;98993.19;;;10.17;100.00
41202;BME280;26936;50.524;8.684;2022-11-15T00:34:07;98991.28;;;10.14;100.00
41202;BME280;26936;50.524;8.684;2022-11-15T00:36:33;98989.63;;;10.04;100.00
41202;BME280;26936;50.524;8.684;2022-11-15T00:38:59;98985.13;;;10.06;100.00
41202;BME280;26936;50.524;8.684;2022-11-15T00:41:25;98987.50;;;10.08;100.00
41202;BME280;26936;50.524;8.684;2022-11-15T00:43:50;98986.59;;;10.11;100.00
41202;BME280;26936;50.524;8.684;2022-11-15T00:46:15;98993.53;;;10.19;100.00
41202;BME280;26936;50.524;8.684;2022-11-15T00:48:40;98984.69;;;10.08;100.00
41202;BME280;26936;50.524;8.684;2022-11-15T00:51:06;98978.41;;;10.25;100.00
41202;BME280;26936;50.524;8.684;2022-11-15T00:53:31;98973.69;;;10.22;100.00
41202;BME280;26936;50.524;8.684;2022-11-15T00:55:56;98976.75;;;10.15;100.00
41202;BME280;26936;50.524;8.684;2022-11-15T00:58:22;98991.03;;;10.21;100.00
41202;BME280;26936;50.524;8.684;2022-11-15T01:00:47;98981.81;;;10.20;100.00
41202;BME280;26936;50.524;8.684;2022-11-15T01:03:12;98984.94;;;10.22;100.00
41202;BME280;26936;50.524;8.684;2022-11-15T01:05:37;98975.13;;;10.27;100.00
41202;BME280;26936;50.524;8.684;2022-11-15T01:08:03;98977.06;;;10.39;100.00
41202;BME280;26936;50.524;8.684;2022-11-15T01:10:29;98968.31;;;10.46;100.00
41202;BME280;26936;50.524;8.684;2022-11-15T01:12:54;98971.59;;;10.44;100.00
41202;BME280;26936;50.524;8.684;2022-11-15T01:15:19;98971.47;;;10.48;100.00
41202;BME280;26936;50.524;8.684;2022-11-15T01:17:45;98967.22;;;10.43;100.00
41202;BME280;26936;50.524;8.684;2022-11-15T01:20:10;98968.16;;;10.40;100.00
41202;BME280;26936;50.524;8.684;2022-11-15T01:22:36;98967.56;;;10.45;100.00
41202;BME280;26936;50.524;8.684;2022-11-15T01:25:01;98966.78;;;10.45;100.00
41202;BME280;26936;50.524;8.684;2022-11-15T01:27:26;98963.31;;;10.41;100.00
41202;BME280;26936;50.524;8.684;2022-11-15T01:29:51;98960.69;;;10.46;100.00
41202;BME280;26936;50.524;8.684;2022-11-15T01:32:17;98960.50;;;10.41;100.00
41202;BME280;26936;50.524;8.684;2022-11-15T01:34:42;98968.03;;;10.44;100.00
41202;BME280;26936;50.524;8.684;2022-11-15T01:37:08;98962.06;;;10.42;100.00
41202;BME280;26936;50.524;8.684;2022-11-15T01:39:33;98961.41;;;10.38;100.00
41202;BME280;26936;50.524;8.684;2022-11-15T01:41:59;98952.19;;;10.37;100.00
41202;BME280;26936;50.524;8.684;2022-11-15T01:46:56;98947.53;;;10.43;100.00
41202;BME280;26936;50.524;8.684;2022-11-15T01:49:23;98941.56;;;10.41;100.00
41202;BME280;26936;50.524;8.684;2022-11-15T01:51:49;98933.13;;;10.41;100.00
41202;BME280;26936;50.524;8.684;2022-11-15T01:54:17;98938.06;;;10.28;100.00
41202;BME280;26936;50.524;8.684;2022-11-15T01:56:48;98930.59;;;10.34;100.00
41202;BME280;26936;50.524;8.684;2022-11-15T01:59:16;98932.31;;;10.32;100.00
41202;BME280;26936;50.524;8.684;2022-11-15T02:01:42;98932.03;;;10.39;100.00
41202;BME280;26936;50.524;8.684;2022-11-15T02:04:21;98920.91;;;10.35;100.00
41202;BME280;26936;50.524;8.684;2022-11-15T02:06:49;98921.72;;;10.45;100.00
41202;BME280;26936;50.524;8.684;2022-11-15T02:09:14;98915.59;;;10.37;100.00
41202;BME280;26936;50.524;8.684;2022-11-15T02:11:40;98925.59;;;10.38;100.00
41202;BME280;26936;50.524;8.684;2022-11-15T02:14:06;98917.63;;;10.37;100.00
41202;BME280;26936;50.524;8.684;2022-11-15T02:16:42;98900.53;;;10.31;100.00
41202;BME280;26936;50.524;8.684;2022-11-15T02:27:29;98912.88;;;10.25;100.00
41202;BME280;26936;50.524;8.684;2022-11-15T02:32:50;98906.00;;;10.26;100.00
41202;BME280;26936;50.524;8.684;2022-11-15T02:35:43;98903.81;;;10.30;100.00
41202;BME280;26936;50.524;8.684;2022-11-15T02:40:55;98911.34;;;10.33;100.00
41202;BME280;26936;50.524;8.684;2022-11-15T02:43:27;98908.22;;;10.31;100.00
41202;BME280;26936;50.524;8.684;2022-11-15T02:46:27;98900.72;;;10.28;100.00
41202;BME280;26936;50.524;8.684;2022-11-15T02:49:13;98912.28;;;10.30;100.00
41202;BME280;26936;50.524;8.684;2022-11-15T02:51:40;98907.09;;;10.28;100.00
41202;BME280;26936;50.524;8.684;2022-11-15T02:54:12;98900.66;;;10.19;100.00
41202;BME280;26936;50.524;8.684;2022-11-15T02:56:39;98900.53;;;10.22;100.00
41202;BME280;26936;50.524;8.684;2022-11-15T03:02:20;98896.00;;;10.25;100.00
41202;BME280;26936;50.524;8.684;2022-11-15T03:04:55;98901.75;;;10.21;100.00
41202;BME280;26936;50.524;8.684;2022-11-15T03:07:40;98909.44;;;10.21;100.00
41202;BME280;26936;50.524;8.684;2022-11-15T03:10:12;98909.38;;;10.12;100.00
41202;BME280;26936;50.524;8.684;2022-11-15T03:12:45;98908.63;;;10.20;100.00
41202;BME280;26936;50.524;8.684;2022-11-15T03:15:17;98911.66;;;10.26;100.00
41202;BME280;26936;50.524;8.684;2022-11-15T03:20:54;98908.69;;;10.29;100.00
41202;BME280;26936;50.524;8.684;2022-11-15T03:23:20;98906.97;;;10.32;100.00
41202;BME280;26936;50.524;8.684;2022-11-15T03:25:48;98900.28;;;10.38;100.00
41202;BME280;26936;50.524;8.684;2022-11-15T03:28:24;98901.22;;;10.44;100.00
41202;BME280;26936;50.524;8.684;2022-11-15T03:30:54;98905.16;;;10.47;100.00
41202;BME280;26936;50.524;8.684;2022-11-15T03:33:20;98902.63;;;10.40;100.00
41202;BME280;26936;50.524;8.684;2022-11-15T03:35:47;98899.47;;;10.38;100.00
41202;BME280;26936;50.524;8.684;2022-11-15T03:38:19;98902.13;;;10.32;100.00
41202;BME280;26936;50.524;8.684;2022-11-15T03:40:58;98906.69;;;10.39;100.00
41202;BME280;26936;50.524;8.684;2022-11-15T03:43:43;98902.28;;;10.29;100.00
41202;BME280;26936;50.524;8.684;2022-11-15T03:46:32;98909.16;;;10.28;100.00
41202;BME280;26936;50.524;8.684;2022-11-15T03:49:11;98904.88;;;10.23;100.00
41202;BME280;26936;50.524;8.684;2022-11-15T03:51:38;98907.91;;;10.29;100.00
41202;BME280;26936;50.524;8.684;2022-11-15T03:54:04;98902.28;;;10.38;100.00
41202;BME280;26936;50.524;8.684;2022-11-15T03:56:29;98904.84;;;10.45;100.00
41202;BME280;26936;50.524;8.684;2022-11-15T03:58:55;98905.44;;;10.40;100.00
41202;BME280;26936;50.524;8.684;2022-11-15T04:01:20;98901.53;;;10.37;100.00
41202;BME280;26936;50.524;8.684;2022-11-15T04:03:45;98901.06;;;10.39;100.00
41202;BME280;26936;50.524;8.684;2022-11-15T04:06:11;98896.06;;;10.43;100.00
41202;BME280;26936;50.524;8.684;2022-11-15T04:08:36;98904.56;;;10.52;100.00
41202;BME280;26936;50.524;8.684;2022-11-15T04:11:01;98911.13;;;10.58;100.00
41202;BME280;26936;50.524;8.684;2022-11-15T04:13:27;98907.22;;;10.55;100.00
41202;BME280;26936;50.524;8.684;2022-11-15T04:15:52;98897.38;;;10.60;100.00
41202;BME280;26936;50.524;8.684;2022-11-15T04:18:17;98905.84;;;10.60;100.00
41202;BME280;26936;50.524;8.684;2022-11-15T04:20:42;98896.25;;;10.57;100.00
41202;BME280;26936;50.524;8.684;2022-11-15T04:23:26;98897.94;;;10.46;100.00
41202;BME280;26936;50.524;8.684;2022-11-15T04:26:21;98910.50;;;10.54;100.00
41202;BME280;26936;50.524;8.684;2022-11-15T04:28:47;98905.03;;;10.50;100.00
41202;BME280;26936;50.524;8.684;2022-11-15T04:31:31;98902.34;;;10.47;100.00
41202;BME280;26936;50.524;8.684;2022-11-15T04:33:56;98899.00;;;10.39;100.00
41202;BME280;26936;50.524;8.684;2022-11-15T04:36:22;98901.41;;;10.50;100.00
41202;BME280;26936;50.524;8.684;2022-11-15T04:39:07;98893.84;;;10.38;100.00
41202;BME280;26936;50.524;8.684;2022-11-15T04:41:32;98900.75;;;10.37;100.00
41202;BME280;26936;50.524;8.684;2022-11-15T04:43:58;98897.44;;;10.29;100.00
41202;BME280;26936;50.524;8.684;2022-11-15T04:46:23;98894.91;;;10.22;100.00
41202;BME280;26936;50.524;8.684;2022-11-15T04:48:49;98890.75;;;10.45;100.00
41202;BME280;26936;50.524;8.684;2022-11-15T04:51:15;98891.03;;;10.38;100.00
41202;BME280;26936;50.524;8.684;2022-11-15T04:53:40;98883.88;;;10.46;100.00
41202;BME280;26936;50.524;8.684;2022-11-15T04:56:06;98882.44;;;10.32;100.00
41202;BME280;26936;50.524;8.684;2022-11-15T04:58:31;98874.44;;;10.31;100.00
41202;BME280;26936;50.524;8.684;2022-11-15T05:00:56;98876.94;;;10.29;100.00
41202;BME280;26936;50.524;8.684;2022-11-15T05:03:22;98870.53;;;10.28;100.00
41202;BME280;26936;50.524;8.684;2022-11-15T05:06:05;98878.94;;;10.19;100.00
41202;BME280;26936;50.524;8.684;2022-11-15T05:08:31;98871.91;;;10.24;100.00
41202;BME280;26936;50.524;8.684;2022-11-15T05:10:56;98870.44;;;10.10;100.00
41202;BME280;26936;50.524;8.684;2022-11-15T05:13:21;98868.50;;;10.29;100.00
41202;BME280;26936;50.524;8.684;2022-11-15T05:15:47;98875.59;;;10.12;100.00
41202;BME280;26936;50.524;8.684;2022-11-15T05:18:12;98862.66;;;10.14;100.00
41202;BME280;26936;50.524;8.684;2022-11-15T05:20:37;98857.19;;;10.20;100.00
41202;BME280;26936;50.524;8.684;2022-11-15T05:23:02;98859.84;;;10.14;100.00
41202;BME280;26936;50.524;8.684;2022-11-15T05:25:28;98854.38;;;10.20;100.00
41202;BME280;26936;50.524;8.684;2022-11-15T05:27:53;98849.81;;;10.13;100.00
41202;BME280;26936;50.524;8.684;2022-11-15T05:30:19;98857.19;;;10.20;100.00
41202;BME280;26936;50.524;8.684;2022-11-15T05:32:44;98842.38;;;9.98;100.00
41202;BME280;26936;50.524;8.684;2022-11-15T05:35:15;98844.66;;;9.59;100.00
41202;BME280;26936;50.524;8.684;2022-11-15T05:37:43;98838.78;;;9.67;100.00
41202;BME280;26936;50.524;8.684;2022-11-15T05:40:08;98832.06;;;9.64;100.00
41202;BME280;26936;50.524;8.684;2022-11-15T05:42:33;98842.06;;;9.65;100.00
41202;BME280;26936;50.524;8.684;2022-11-15T05:44:59;98835.97;;;9.45;100.00
41202;BME280;26936;50.524;8.684;2022-11-15T05:47:28;98838.66;;;9.48;100.00
41202;BME280;26936;50.524;8.684;2022-11-15T05:49:54;98824.56;;;9.39;100.00
41202;BME280;26936;50.524;8.684;2022-11-15T05:52:22;98828.47;;;9.20;100.00
41202;BME280;26936;50.524;8.684;2022-11-15T05:54:50;98832.53;;;9.41;100.00
41202;BME280;26936;50.524;8.684;2022-11-15T05:57:16;98830.50;;;9.20;100.00
41202;BME280;26936;50.524;8.684;2022-11-15T05:59:42;98837.28;;;9.10;100.00
41202;BME280;26936;50.524;8.684;2022-11-15T06:02:09;98837.03;;;9.17;100.00
41202;BME280;26936;50.524;8.684;2022-11-15T06:04:35;98848.53;;;9.10;100.00
41202;BME280;26936;50.524;8.684;2022-11-15T06:07:00;98855.13;;;9.16;100.00
41202;BME280;26936;50.524;8.684;2022-11-15T06:09:25;98853.50;;;9.27;100.00
41202;BME280;26936;50.524;8.684;2022-11-15T06:11:51;98853.63;;;9.45;100.00
41202;BME280;26936;50.524;8.684;2022-11-15T06:14:16;98858.06;;;9.34;100.00
41202;BME280;26936;50.524;8.684;2022-11-15T06:16:41;98860.88;;;9.34;100.00
41202;BME280;26936;50.524;8.684;2022-11-15T06:19:07;98857.41;;;9.30;100.00
41202;BME280;26936;50.524;8.684;2022-11-15T06:21:32;98855.06;;;9.28;100.00
41202;BME280;26936;50.524;8.684;2022-11-15T06:23:58;98851.53;;;9.37;100.00
41202;BME280;26936;50.524;8.684;2022-11-15T06:26:23;98849.53;;;9.37;100.00
41202;BME280;26936;50.524;8.684;2022-11-15T06:28:48;98857.81;;;9.41;100.00
41202;BME280;26936;50.524;8.684;2022-11-15T06:31:14;98855.47;;;9.39;100.00
41202;BME280;26936;50.524;8.684;2022-11-15T06:33:39;98866.69;;;9.61;100.00
41202;BME280;26936;50.524;8.684;2022-11-15T06:36:07;98870.03;;;9.69;100.00
41202;BME280;26936;50.524;8.684;2022-11-15T06:38:34;98876.59;;;9.66;100.00
41202;BME280;26936;50.524;8.684;2022-11-15T06:41:03;98872.06;;;9.68;100.00
41202;BME280;26936;50.524;8.684;2022-11-15T06:43:29;98870.28;;;9.61;100.00
41202;BME280;26936;50.524;8.684;2022-11-15T06:45:54;98872.50;;;9.67;100.00
41202;BME280;26936;50.524;8.684;2022-11-15T06:48:20;98868.91;;;9.66;100.00
41202;BME280;26936;50.524;8.684;2022-11-15T06:50:52;98872.19;;;9.64;100.00
41202;BME280;26936;50.524;8.684;2022-11-15T06:53:18;98869.25;;;9.68;100.00
41202;BME280;26936;50.524;8.684;2022-11-15T06:55:43;98861.19;;;9.79;100.00
41202;BME280;26936;50.524;8.684;2022-11-15T06:58:08;98866.69;;;9.83;100.00
41202;BME280;26936;50.524;8.684;2022-11-15T07:00:34;98869.22;;;9.90;100.00
41202;BME280;26936;50.524;8.684;2022-11-15T07:03:00;98871.44;;;9.95;100.00
41202;BME280;26936;50.524;8.684;2022-11-15T07:05:26;98867.03;;;9.94;100.00
41202;BME280;26936;50.524;8.684;2022-11-15T07:07:53;98868.31;;;10.02;100.00
41202;BME280;26936;50.524;8.684;2022-11-15T07:10:19;98866.88;;;10.19;100.00
41202;BME280;26936;50.524;8.684;2022-11-15T07:12:47;98865.97;;;10.22;100.00
41202;BME280;26936;50.524;8.684;2022-11-15T07:15:14;98856.56;;;10.16;100.00
41202;BME280;26936;50.524;8.684;2022-11-15T07:17:39;98861.47;;;10.03;100.00
41202;BME280;26936;50.524;8.684;2022-11-15T07:20:05;98863.25;;;10.09;100.00
41202;BME280;26936;50.524;8.684;2022-11-15T07:22:30;98864.22;;;10.15;100.00
41202;BME280;26936;50.524;8.684;2022-11-15T07:24:55;98872.88;;;10.30;100.00
41202;BME280;26936;50.524;8.684;2022-11-15T07:27:21;98869.50;;;10.13;100.00
41202;BME280;26936;50.524;8.684;2022-11-15T07:29:46;98872.88;;;9.99;100.00
41202;BME280;26936;50.524;8.684;2022-11-15T07:32:11;98871.13;;;10.02;100.00
41202;BME280;26936;50.524;8.684;2022-11-15T07:34:36;98869.09;;;9.93;100.00
41202;BME280;26936;50.524;8.684;2022-11-15T07:37:02;98877.50;;;10.15;100.00
41202;BME280;26936;50.524;8.684;2022-11-15T07:39:27;98888.47;;;10.22;100.00
41202;BME280;26936;50.524;8.684;2022-11-15T07:41:52;98880.56;;;10.29;100.00
41202;BME280;26936;50.524;8.684;2022-11-15T07:44:37;98887.59;;;10.34;100.00
41202;BME280;26936;50.524;8.684;2022-11-15T07:47:03;98887.69;;;10.21;100.00
41202;BME280;26936;50.524;8.684;2022-11-15T07:49:28;98888.94;;;10.20;100.00
41202;BME280;26936;50.524;8.684;2022-11-15T07:51:53;98883.78;;;10.19;100.00
41202;BME280;26936;50.524;8.684;2022-11-15T07:54:18;98891.56;;;10.45;100.00
41202;BME280;26936;50.524;8.684;2022-11-15T07:56:44;98889.88;;;10.57;100.00
41202;BME280;26936;50.524;8.684;2022-11-15T07:59:09;98892.38;;;10.64;100.00
41202;BME280;26936;50.524;8.684;2022-11-15T08:01:34;98884.25;;;10.57;100.00
41202;BME280;26936;50.524;8.684;2022-11-15T08:03:59;98884.44;;;10.71;100.00
41202;BME280;26936;50.524;8.684;2022-11-15T08:06:25;98873.16;;;10.71;100.00
41202;BME280;26936;50.524;8.684;2022-11-15T08:08:50;98872.38;;;10.71;100.00
41202;BME280;26936;50.524;8.684;2022-11-15T08:11:15;98870.47;;;10.59;100.00
41202;BME280;26936;50.524;8.684;2022-11-15T08:13:40;98873.00;;;10.66;100.00
41202;BME280;26936;50.524;8.684;2022-11-15T08:16:06;98872.09;;;10.78;100.00
41202;BME280;26936;50.524;8.684;2022-11-15T08:18:31;98871.34;;;10.86;100.00
41202;BME280;26936;50.524;8.684;2022-11-15T08:21:00;98862.22;;;10.91;100.00
41202;BME280;26936;50.524;8.684;2022-11-15T08:23:26;98866.47;;;10.78;100.00
41202;BME280;26936;50.524;8.684;2022-11-15T08:25:52;98860.03;;;10.77;100.00
41202;BME280;26936;50.524;8.684;2022-11-15T08:28:17;98866.59;;;10.83;100.00
41202;BME280;26936;50.524;8.684;2022-11-15T08:30:43;98863.81;;;10.92;100.00
41202;BME280;26936;50.524;8.684;2022-11-15T08:33:12;98868.50;;;10.95;100.00
41202;BME280;26936;50.524;8.684;2022-11-15T08:35:38;98864.09;;;10.85;100.00
41202;BME280;26936;50.524;8.684;2022-11-15T08:38:04;98860.81;;;10.78;100.00
41202;BME280;26936;50.524;8.684;2022-11-15T08:40:29;98856.91;;;10.84;100.00
41202;BME280;26936;50.524;8.684;2022-11-15T08:42:54;98860.69;;;11.00;100.00
41202;BME280;26936;50.524;8.684;2022-11-15T08:45:20;98856.44;;;10.86;100.00
41202;BME280;26936;50.524;8.684;2022-11-15T08:47:45;98852.69;;;10.89;100.00
41202;BME280;26936;50.524;8.684;2022-11-15T08:50:10;98849.56;;;11.05;100.00
41202;BME280;26936;50.524;8.684;2022-11-15T08:52:35;98850.34;;;11.15;100.00
41202;BME280;26936;50.524;8.684;2022-11-15T08:55:01;98845.97;;;11.23;100.00
41202;BME280;26936;50.524;8.684;2022-11-15T08:57:28;98855.22;;;11.14;100.00
41202;BME280;26936;50.524;8.684;2022-11-15T08:59:55;98848.16;;;11.28;100.00
41202;BME280;26936;50.524;8.684;2022-11-15T09:02:20;98849.44;;;11.27;100.00
41202;BME280;26936;50.524;8.684;2022-11-15T09:04:45;98846.44;;;11.39;100.00
41202;BME280;26936;50.524;8.684;2022-11-15T09:07:11;98843.16;;;11.32;100.00
41202;BME280;26936;50.524;8.684;2022-11-15T09:09:36;98845.34;;;11.46;100.00
41202;BME280;26936;50.524;8.684;2022-11-15T09:12:02;98851.56;;;11.59;100.00
41202;BME280;26936;50.524;8.684;2022-11-15T09:14:27;98841.41;;;11.61;100.00
41202;BME280;26936;50.524;8.684;2022-11-15T09:16:53;98843.28;;;11.55;100.00
41202;BME280;26936;50.524;8.684;2022-11-15T09:19:18;98845.34;;;11.55;100.00
41202;BME280;26936;50.524;8.684;2022-11-15T09:21:43;98841.75;;;11.45;100.00
41202;BME280;26936;50.524;8.684;2022-11-15T09:24:09;98846.09;;;11.55;100.00
41202;BME280;26936;50.524;8.684;2022-11-15T09:26:34;98848.94;;;11.64;100.00
41202;BME280;26936;50.524;8.684;2022-11-15T09:28:59;98843.91;;;11.77;100.00
41202;BME280;26936;50.524;8.684;2022-11-15T09:31:26;98838.38;;;11.83;100.00
41202;BME280;26936;50.524;8.684;2022-11-15T09:33:51;98849.66;;;11.92;100.00
41202;BME280;26936;50.524;8.684;2022-11-15T09:36:16;98849.38;;;11.81;100.00
41202;BME280;26936;50.524;8.684;2022-11-15T09:38:42;98844.38;;;11.76;100.00
41202;BME280;26936;50.524;8.684;2022-11-15T09:49:14;98840.94;;;11.72;100.00
41202;BME280;26936;50.524;8.684;2022-11-15T09:51:44;98840.88;;;11.99;100.00
41202;BME280;26936;50.524;8.684;2022-11-15T09:56:41;98829.47;;;12.82;98.27
41202;BME280;26936;50.524;8.684;2022-11-15T09:59:28;98832.84;;;12.95;97.42
41202;BME280;26936;50.524;8.684;2022-11-15T10:04:43;98819.56;;;13.25;94.82
41202;BME280;26936;50.524;8.684;2022-11-15T10:07:16;98820.50;;;13.75;91.67
41202;BME280;26936;50.524;8.684;2022-11-15T10:10:12;98813.56;;;13.76;90.14
41202;BME280;26936;50.524;8.684;2022-11-15T10:12:44;98803.84;;;13.62;90.09
41202;BME280;26936;50.524;8.684;2022-11-15T10:15:13;98802.53;;;13.48;92.43
41202;BME280;26936;50.524;8.684;2022-11-15T10:18:06;98804.69;;;13.39;92.98
41202;BME280;26936;50.524;8.684;2022-11-15T10:20:40;98795.66;;;13.11;94.73
41202;BME280;26936;50.524;8.684;2022-11-15T10:23:11;98790.19;;;13.08;94.45
41202;BME280;26936;50.524;8.684;2022-11-15T10:25:38;98792.00;;;12.96;94.39
41202;BME280;26936;50.524;8.684;2022-11-15T10:30:44;98784.72;;;12.81;97.63
41202;BME280;26936;50.524;8.684;2022-11-15T10:43:42;98780.50;;;12.76;97.87
41202;BME280;26936;50.524;8.684;2022-11-15T10:46:19;98783.56;;;12.87;96.79
41202;BME280;26936;50.524;8.684;2022-11-15T10:48:44;98780.94;;;13.07;95.93
41202;BME280;26936;50.524;8.684;2022-11-15T10:51:26;98777.88;;;13.49;93.66
41202;BME280;26936;50.524;8.684;2022-11-15T10:53:57;98761.38;;;13.77;92.23
41202;BME280;26936;50.524;8.684;2022-11-15T10:56:25;98759.91;;;13.81;92.97
41202;BME280;26936;50.524;8.684;2022-11-15T10:58:53;98757.25;;;13.92;90.28
41202;BME280;26936;50.524;8.684;2022-11-15T11:01:23;98759.00;;;14.04;91.31
41202;BME280;26936;50.524;8.684;2022-11-15T11:06:28;98749.41;;;14.02;90.46
41202;BME280;26936;50.524;8.684;2022-11-15T11:11:25;98737.34;;;14.56;88.34
41202;BME280;26936;50.524;8.684;2022-11-15T11:14:12;98727.06;;;15.24;84.31
41202;BME280;26936;50.524;8.684;2022-11-15T11:16:44;98723.16;;;15.73;81.81
41202;BME280;26936;50.524;8.684;2022-11-15T11:28:20;98698.25;;;16.24;78.09
41202;BME280;26936;50.524;8.684;2022-11-15T11:31:12;98705.31;;;16.40;77.55
41202;BME280;26936;50.524;8.684;2022-11-15T11:36:42;98676.78;;;16.18;79.53
41202;BME280;26936;50.524;8.684;2022-11-15T11:39:52;98674.81;;;15.93;81.01
41202;BME280;26936;50.524;8.684;2022-11-15T11:42:43;98676.03;;;15.81;81.91
41202;BME280;26936;50.524;8.684;2022-11-15T11:45:23;98672.06;;;15.16;84.88
41202;BME280;26936;50.524;8.684;2022-11-15T11:47:58;98679.19;;;15.06;86.25
41202;BME280;26936;50.524;8.684;2022-11-15T11:50:28;98670.47;;;14.64;88.09
41202;BME280;26936;50.524;8.684;2022-11-15T11:53:01;98654.44;;;14.35;90.68
41202;BME280;26936;50.524;8.684;2022-11-15T11:55:34;98652.09;;;14.34;90.09
41202;BME280;26936;50.524;8.684;2022-11-15T11:58:22;98650.91;;;14.06;92.93
41202;BME280;26936;50.524;8.684;2022-11-15T12:00:55;98654.34;;;14.30;91.16
41202;BME280;26936;50.524;8.684;2022-11-15T12:06:22;98661.66;;;14.02;93.55
41202;BME280;26936;50.524;8.684;2022-11-15T12:08:58;98657.56;;;14.03;92.92
41202;BME280;26936;50.524;8.684;2022-11-15T12:11:29;98655.28;;;13.87;95.05
41202;BME280;26936;50.524;8.684;2022-11-15T12:13:59;98657.88;;;13.90;94.07
41202;BME280;26936;50.524;8.684;2022-11-15T12:16:28;98650.09;;;13.85;93.98
41202;BME280;26936;50.524;8.684;2022-11-15T12:18:58;98658.91;;;13.73;94.80
41202;BME280;26936;50.524;8.684;2022-11-15T12:21:48;98652.47;;;13.72;95.00
41202;BME280;26936;50.524;8.684;2022-11-15T12:24:34;98651.44;;;13.55;95.51
41202;BME280;26936;50.524;8.684;2022-11-15T12:27:29;98642.19;;;13.40;97.26
41202;BME280;26936;50.524;8.684;2022-11-15T12:29:56;98656.03;;;13.38;97.72
41202;BME280;26936;50.524;8.684;2022-11-15T12:32:33;98636.72;;;13.36;97.83
41202;BME280;26936;50.524;8.684;2022-11-15T12:35:01;98628.94;;;13.31;97.47
41202;BME280;26936;50.524;8.684;2022-11-15T12:42:40;98624.75;;;13.27;97.70
41202;BME280;26936;50.524;8.684;2022-11-15T12:58:49;98618.44;;;13.17;98.39
41202;BME280;26936;50.524;8.684;2022-11-15T13:07:03;98611.72;;;13.15;97.71
41202;BME280;26936;50.524;8.684;2022-11-15T13:11:58;98601.28;;;13.21;99.58
41202;BME280;26936;50.524;8.684;2022-11-15T13:17:03;98600.56;;;13.40;97.94
41202;BME280;26936;50.524;8.684;2022-11-15T13:19:37;98606.13;;;13.35;98.59
41202;BME280;26936;50.524;8.684;2022-11-15T13:22:08;98601.81;;;13.39;98.47
41202;BME280;26936;50.524;8.684;2022-11-15T13:24:52;98588.25;;;13.43;99.51
41202;BME280;26936;50.524;8.684;2022-11-15T13:27:19;98591.59;;;13.77;97.53
41202;BME280;26936;50.524;8.684;2022-11-15T13:29:45;98586.41;;;13.95;95.13
41202;BME280;26936;50.524;8.684;2022-11-15T13:32:15;98588.09;;;13.87;96.52
41202;BME280;26936;50.524;8.684;2022-11-15T13:34:48;98574.94;;;13.84;96.05
41202;BME280;26936;50.524;8.684;2022-11-15T13:39:48;98562.91;;;13.69;97.33
41202;BME280;26936;50.524;8.684;2022-11-15T13:42:18;98555.91;;;13.64;97.53
41202;BME280;26936;50.524;8.684;2022-11-15T13:44:58;98551.16;;;13.56;97.08
41202;BME280;26936;50.524;8.684;2022-11-15T13:47:28;98555.13;;;13.64;97.50
41202;BME280;26936;50.524;8.684;2022-11-15T13:49:56;98553.72;;;13.54;97.24
41202;BME280;26936;50.524;8.684;2022-11-15T13:52:26;98546.53;;;13.38;98.94
41202;BME280;26936;50.524;8.684;2022-11-15T13:57:23;98548.78;;;13.34;100.00
41202;BME280;26936;50.524;8.684;2022-11-15T14:02:17;98548.75;;;13.49;99.74
41202;BME280;26936;50.524;8.684;2022-11-15T14:04:50;98549.44;;;13.44;100.00
41202;BME280;26936;50.524;8.684;2022-11-15T14:07:17;98548.31;;;13.36;100.00
41202;BME280;26936;50.524;8.684;2022-11-15T14:09:44;98546.44;;;13.33;100.00
41202;BME280;26936;50.524;8.684;2022-11-15T14:14:50;98544.38;;;13.33;100.00
41202;BME280;26936;50.524;8.684;2022-11-15T14:17:34;98535.41;;;13.35;100.00
41202;BME280;26936;50.524;8.684;2022-11-15T14:20:00;98526.88;;;13.29;100.00
41202;BME280;26936;50.524;8.684;2022-11-15T14:22:29;98530.50;;;13.15;100.00
41202;BME280;26936;50.524;8.684;2022-11-15T14:27:43;98527.38;;;13.13;100.00
41202;BME280;26936;50.524;8.684;2022-11-15T14:30:17;98530.41;;;13.10;100.00
41202;BME280;26936;50.524;8.684;2022-11-15T14:32:49;98522.69;;;13.10;100.00
41202;BME280;26936;50.524;8.684;2022-11-15T14:35:17;98521.16;;;13.09;100.00
41202;BME280;26936;50.524;8.684;2022-11-15T14:37:43;98520.47;;;13.00;100.00
41202;BME280;26936;50.524;8.684;2022-11-15T14:40:13;98509.66;;;12.98;100.00
41202;BME280;26936;50.524;8.684;2022-11-15T14:42:38;98505.25;;;12.97;100.00
41202;BME280;26936;50.524;8.684;2022-11-15T14:45:11;98497.09;;;12.85;100.00
41202;BME280;26936;50.524;8.684;2022-11-15T14:47:37;98483.47;;;12.69;100.00
41202;BME280;26936;50.524;8.684;2022-11-15T14:50:03;98481.44;;;12.69;100.00
41202;BME280;26936;50.524;8.684;2022-11-15T14:52:30;98479.50;;;12.61;100.00